Time;durP1;ratioP1;P1;durP2;ratioP2;P2;SDS_P1;SDS_P2;PMS_P1;PMS_P2;Temp;Humidity;BMP_temperature;BMP_pressure;BME280_temperature;BME280_humidity;BME280_pressure;Samples;Min_cycle;Max_cycle;Signal;HPM_P1;HPM_P2
2023/04/03 00:02:13;;;;;;;9.50;2.05;;;5.40;97.80;;;;;;5052297;28;20224;-75
2023/04/03 00:04:40;;;;;;;8.60;2.10;;;5.40;97.70;;;;;;5051691;28;20216;-77
2023/04/03 00:07:08;;;;;;;4.15;2.28;;;5.30;97.60;;;;;;5053587;28;20228;-76
2023/04/03 00:09:36;;;;;;;3.65;2.03;;;5.30;97.90;;;;;;5052521;28;20259;-76
2023/04/03 00:12:03;;;;;;;2.63;1.90;;;5.40;97.90;;;;;;5053912;28;20220;-77
2023/04/03 00:14:30;;;;;;;2.70;2.05;;;5.40;98.00;;;;;;5055073;28;20224;-76
2023/04/03 00:16:57;;;;;;;7.53;2.10;;;5.40;97.70;;;;;;5054489;28;20221;-75
2023/04/03 00:19:26;;;;;;;4.20;2.85;;;5.40;97.70;;;;;;5053757;28;20259;-76
2023/04/03 00:21:54;;;;;;;4.15;2.17;;;5.30;98.00;;;;;;5053598;28;20232;-76
2023/04/03 00:24:22;;;;;;;3.95;2.17;;;5.30;97.80;;;;;;5056433;28;20228;-76
2023/04/03 00:26:50;;;;;;;5.13;2.42;;;5.30;97.80;;;;;;5060357;28;20216;-76
2023/04/03 00:29:17;;;;;;;2.95;2.17;;;5.30;98.10;;;;;;5061479;28;20294;-76
2023/04/03 00:31:45;;;;;;;5.85;2.58;;;5.30;98.00;;;;;;5055464;28;20224;-76
2023/04/03 00:34:17;;;;;;;3.55;1.90;;;5.30;98.00;;;;;;5058257;28;20282;-75
2023/04/03 00:36:44;;;;;;;3.25;1.90;;;5.30;98.20;;;;;;5056822;28;20228;-75
2023/04/03 00:39:11;;;;;;;6.03;2.15;;;5.40;98.30;;;;;;5056605;28;20240;-75
2023/04/03 00:41:38;;;;;;;4.50;1.80;;;5.30;98.30;;;;;;5056146;28;20217;-75
2023/04/03 00:46:59;;;;;;;4.90;1.70;;;5.30;98.70;;;;;;5112050;27;20571;-78
2023/04/03 00:49:26;;;;;;;8.25;2.00;;;5.40;97.90;;;;;;5073441;28;20277;-78
2023/04/03 00:51:54;;;;;;;5.88;2.38;;;5.30;97.90;;;;;;5069435;28;20252;-76
2023/04/03 00:54:22;;;;;;;7.85;2.05;;;5.30;97.90;;;;;;5070025;28;20670;-76
2023/04/03 00:56:50;;;;;;;8.70;2.13;;;5.30;97.80;;;;;;5069533;28;20246;-74
2023/04/03 00:59:26;;;;;;;7.05;2.30;;;5.20;97.80;;;;;;5070073;28;20226;-77
2023/04/03 01:01:55;;;;;;;4.55;2.33;;;5.20;97.80;;;;;;5073217;28;20245;-77
2023/04/03 01:04:30;;;;;;;3.15;2.08;;;5.20;98.00;;;;;;5073554;28;20224;-77
2023/04/03 01:07:00;;;;;;;2.70;1.65;;;5.20;98.00;;;;;;5069279;28;20238;-78
2023/04/03 01:09:28;;;;;;;6.00;2.00;;;5.20;98.00;;;;;;5069693;28;20232;-76
2023/04/03 01:11:55;;;;;;;2.72;1.80;;;5.20;98.20;;;;;;5069677;28;20236;-74
2023/04/03 01:14:22;;;;;;;4.32;1.95;;;5.30;98.30;;;;;;5069763;28;20246;-75
2023/04/03 01:16:54;;;;;;;4.45;2.97;;;5.30;98.50;;;;;;5068445;28;20685;-77
2023/04/03 01:19:24;;;;;;;4.38;1.88;;;5.20;98.30;;;;;;5069168;28;20220;-78
2023/04/03 01:22:17;;;;;;;1.63;1.35;;;5.30;98.40;;;;;;5080029;28;20307;-77
2023/04/03 01:24:46;;;;;;;2.22;1.77;;;5.30;98.40;;;;;;5076258;28;20231;-77
2023/04/03 01:27:13;;;;;;;2.20;1.45;;;5.30;98.30;;;;;;5079412;28;20246;-77
2023/04/03 01:29:43;;;;;;;4.10;2.53;;;5.30;98.20;;;;;;5078615;28;20235;-77
2023/04/03 01:32:12;;;;;;;2.63;1.52;;;5.30;98.30;;;;;;5080737;28;20224;-75
2023/04/03 01:34:39;;;;;;;4.95;2.25;;;5.20;98.30;;;;;;5085205;28;20223;-78
2023/04/03 01:37:06;;;;;;;2.78;1.90;;;5.20;98.30;;;;;;5066826;28;20231;-74
2023/04/03 01:39:33;;;;;;;4.18;2.15;;;5.20;98.40;;;;;;5085691;28;20235;-75
2023/04/03 01:42:00;;;;;;;2.88;1.90;;;5.20;98.50;;;;;;5069140;28;20235;-78
2023/04/03 01:44:28;;;;;;;2.47;1.67;;;5.20;98.70;;;;;;5072355;28;20312;-77
2023/04/03 01:46:55;;;;;;;6.78;2.10;;;5.20;98.60;;;;;;5072498;28;20255;-75
2023/04/03 01:49:26;;;;;;;3.75;2.10;;;5.10;98.50;;;;;;5080596;28;20228;-78
2023/04/03 01:51:53;;;;;;;6.30;2.10;;;5.10;98.50;;;;;;5068713;28;20243;-75
2023/04/03 01:54:20;;;;;;;3.92;1.98;;;5.10;98.50;;;;;;5070101;28;20220;-75
2023/04/03 01:56:50;;;;;;;2.97;1.70;;;5.10;98.70;;;;;;5063894;28;20221;-77
2023/04/03 01:59:19;;;;;;;4.70;2.08;;;5.10;98.70;;;;;;5056012;28;20796;-77
2023/04/03 02:01:46;;;;;;;3.05;2.05;;;5.00;98.90;;;;;;5055835;28;20315;-75
2023/04/03 02:04:13;;;;;;;4.97;2.58;;;5.00;98.90;;;;;;5055710;28;20861;-77
2023/04/03 02:06:45;;;;;;;6.90;1.80;;;4.90;99.00;;;;;;5055688;28;20307;-77
2023/04/03 02:09:12;;;;;;;4.75;2.15;;;4.90;99.20;;;;;;5061268;28;20569;-77
2023/04/03 02:11:42;;;;;;;6.00;2.10;;;4.90;99.30;;;;;;5047035;28;20674;-75
2023/04/03 02:14:09;;;;;;;5.65;1.52;;;4.80;99.20;;;;;;5054797;28;20262;-78
2023/04/03 02:16:37;;;;;;;4.93;2.15;;;4.80;99.30;;;;;;5054447;28;20220;-77
2023/04/03 02:19:04;;;;;;;2.13;1.77;;;4.80;99.30;;;;;;5054828;28;20229;-77
2023/04/03 02:21:31;;;;;;;6.03;1.88;;;4.80;99.40;;;;;;5056345;28;20286;-75
2023/04/03 02:23:59;;;;;;;3.17;1.42;;;4.70;99.50;;;;;;5054406;28;20224;-77
2023/04/03 02:26:26;;;;;;;5.60;2.08;;;4.70;99.60;;;;;;5054655;28;20224;-76
2023/04/03 02:28:58;;;;;;;4.57;2.17;;;4.70;99.80;;;;;;5054601;28;20259;-77
2023/04/03 02:31:25;;;;;;;3.38;2.00;;;4.60;99.80;;;;;;5055285;28;20688;-76
2023/04/03 02:33:52;;;;;;;5.50;2.00;;;4.60;99.90;;;;;;5054842;28;20278;-77
2023/04/03 02:36:20;;;;;;;2.30;1.88;;;4.60;99.90;;;;;;5053808;28;20654;-75
2023/04/03 02:38:48;;;;;;;2.58;2.00;;;4.60;99.90;;;;;;5054975;28;20229;-77
2023/04/03 02:41:17;;;;;;;5.05;2.00;;;4.60;99.90;;;;;;5054150;28;20563;-77
2023/04/03 02:43:43;;;;;;;3.53;2.03;;;4.60;99.90;;;;;;5054534;28;20221;-77
2023/04/03 02:46:10;;;;;;;2.10;1.45;;;4.50;99.90;;;;;;5054028;28;20282;-75
2023/04/03 02:48:38;;;;;;;4.10;1.58;;;4.60;99.90;;;;;;5054423;28;20716;-75
2023/04/03 02:51:05;;;;;;;2.50;1.60;;;4.60;99.90;;;;;;5054690;28;20682;-76
2023/04/03 02:53:38;;;;;;;4.38;2.35;;;4.60;99.90;;;;;;5044119;28;20284;-74
2023/04/03 02:56:06;;;;;;;3.45;2.78;;;4.60;99.90;;;;;;5053365;28;20230;-77
2023/04/03 02:58:35;;;;;;;7.55;2.67;;;4.50;99.90;;;;;;5053835;28;20229;-77
2023/04/03 03:01:04;;;;;;;4.10;2.60;;;4.50;99.90;;;;;;5053449;28;20746;-75
2023/04/03 03:03:31;;;;;;;3.20;2.10;;;4.50;99.90;;;;;;5053496;28;20254;-74
2023/04/03 03:06:05;;;;;;;4.35;3.35;;;4.50;99.90;;;;;;5054363;28;20240;-77
2023/04/03 03:08:33;;;;;;;3.17;2.33;;;4.50;99.90;;;;;;5052704;28;20295;-75
2023/04/03 03:11:00;;;;;;;2.28;1.40;;;4.50;99.90;;;;;;5053555;28;20239;-77
2023/04/03 03:13:28;;;;;;;3.22;1.63;;;4.50;99.90;;;;;;5053408;28;20582;-77
2023/04/03 03:16:01;;;;;;;5.38;2.30;;;4.50;99.90;;;;;;5054199;28;20228;-75
2023/04/03 03:18:31;;;;;;;3.42;1.85;;;4.50;99.90;;;;;;5053716;28;20698;-77
2023/04/03 03:21:00;;;;;;;4.82;2.10;;;4.40;99.90;;;;;;5053848;28;20538;-75
2023/04/03 03:23:28;;;;;;;3.13;2.00;;;4.40;99.90;;;;;;5053614;28;20232;-75
2023/04/03 03:25:57;;;;;;;3.05;2.13;;;4.40;99.90;;;;;;5053661;28;20217;-77
2023/04/03 03:28:24;;;;;;;3.53;1.90;;;4.30;99.90;;;;;;5052232;28;20615;-77
2023/04/03 03:30:52;;;;;;;3.33;2.17;;;4.30;99.90;;;;;;5053735;28;20231;-75
2023/04/03 03:33:20;;;;;;;3.72;2.25;;;4.40;99.90;;;;;;5052951;28;20656;-75
2023/04/03 03:35:47;;;;;;;4.68;2.40;;;4.40;99.90;;;;;;5053229;28;20286;-75
2023/04/03 03:38:14;;;;;;;4.53;2.05;;;4.30;99.90;;;;;;5052793;28;20236;-77
2023/04/03 03:40:42;;;;;;;6.57;3.35;;;4.30;99.90;;;;;;5053329;28;20225;-75
2023/04/03 03:43:09;;;;;;;4.93;2.08;;;4.30;99.90;;;;;;5053237;28;20240;-75
2023/04/03 03:45:36;;;;;;;5.63;3.20;;;4.30;99.90;;;;;;5052291;28;20685;-75
2023/04/03 03:48:03;;;;;;;5.10;1.65;;;4.30;99.90;;;;;;5053423;28;20258;-75
2023/04/03 03:50:32;;;;;;;5.90;2.25;;;4.30;99.90;;;;;;5052327;28;20245;-75
2023/04/03 03:52:59;;;;;;;3.25;2.13;;;4.20;99.90;;;;;;5044431;28;20225;-75
2023/04/03 03:55:26;;;;;;;3.17;2.08;;;4.30;99.90;;;;;;5052192;28;20383;-75
2023/04/03 03:57:56;;;;;;;2.67;2.15;;;4.20;99.90;;;;;;5052029;28;20235;-77
2023/04/03 04:00:23;;;;;;;3.58;2.50;;;4.20;99.90;;;;;;5051891;28;20634;-77
2023/04/03 04:02:50;;;;;;;2.95;1.95;;;4.20;99.90;;;;;;5053056;28;20665;-75
2023/04/03 04:05:17;;;;;;;3.33;2.65;;;4.20;99.90;;;;;;5052463;28;20224;-75
2023/04/03 04:07:49;;;;;;;5.22;2.05;;;4.20;99.90;;;;;;5053143;28;20248;-75
2023/04/03 04:10:16;;;;;;;8.05;2.00;;;4.20;99.90;;;;;;5051836;28;20274;-77
2023/04/03 04:12:43;;;;;;;2.95;2.08;;;4.20;99.90;;;;;;5052563;28;20228;-77
2023/04/03 04:15:11;;;;;;;8.80;1.98;;;4.20;99.90;;;;;;5052830;28;20643;-77
2023/04/03 04:17:39;;;;;;;2.40;1.90;;;4.20;99.90;;;;;;5052210;28;20622;-75
2023/04/03 04:20:09;;;;;;;3.13;2.28;;;4.20;99.90;;;;;;5052450;28;20226;-75
2023/04/03 04:22:50;;;;;;;3.95;1.85;;;4.10;99.90;;;;;;5051571;28;20236;-75
2023/04/03 04:25:17;;;;;;;4.15;2.13;;;4.10;99.90;;;;;;5052143;28;20221;-76
2023/04/03 04:27:44;;;;;;;3.22;2.22;;;4.20;99.90;;;;;;5042456;28;20233;-77
2023/04/03 04:30:13;;;;;;;5.78;3.00;;;4.20;99.90;;;;;;5051861;28;20232;-77
2023/04/03 04:32:40;;;;;;;5.05;1.60;;;4.20;99.90;;;;;;5052531;28;20228;-75
2023/04/03 04:35:08;;;;;;;3.25;1.85;;;4.20;99.90;;;;;;5052745;28;20682;-78
2023/04/03 04:37:35;;;;;;;2.83;1.50;;;4.10;99.90;;;;;;5051997;28;20556;-75
2023/04/03 04:40:04;;;;;;;3.35;1.42;;;4.10;99.90;;;;;;5052366;28;20225;-75
2023/04/03 04:42:31;;;;;;;3.88;1.85;;;4.10;99.90;;;;;;5051943;28;20221;-75
2023/04/03 04:44:58;;;;;;;6.97;2.28;;;4.00;99.90;;;;;;5053006;28;20623;-75
2023/04/03 04:47:26;;;;;;;3.17;1.60;;;4.00;99.90;;;;;;5051923;28;20228;-76
2023/04/03 04:49:53;;;;;;;6.28;1.95;;;4.00;99.90;;;;;;5051676;28;20286;-75
2023/04/03 04:52:20;;;;;;;4.28;1.70;;;4.00;99.90;;;;;;5060299;28;20224;-77
2023/04/03 04:54:47;;;;;;;4.13;2.00;;;4.00;99.90;;;;;;5056636;28;20304;-75
2023/04/03 04:57:15;;;;;;;5.57;2.10;;;4.00;99.90;;;;;;5056551;28;20236;-74
2023/04/03 04:59:42;;;;;;;7.63;2.10;;;4.00;99.90;;;;;;5062917;28;20236;-77
2023/04/03 05:02:11;;;;;;;5.25;1.70;;;4.00;99.90;;;;;;5066578;28;20306;-75
2023/04/03 05:04:38;;;;;;;4.80;1.90;;;4.00;99.90;;;;;;5066281;28;20255;-77
2023/04/03 05:07:12;;;;;;;4.60;1.73;;;4.00;99.90;;;;;;5052839;28;20239;-75
2023/04/03 05:09:42;;;;;;;2.88;1.45;;;4.00;99.90;;;;;;5050591;28;20235;-78
2023/04/03 05:12:18;;;;;;;4.85;1.80;;;4.00;99.90;;;;;;5051970;28;20730;-76
2023/04/03 05:14:46;;;;;;;2.80;2.00;;;4.00;99.90;;;;;;5051459;28;20240;-78
2023/04/03 05:17:13;;;;;;;3.10;1.67;;;4.00;99.90;;;;;;5052465;28;20266;-76
2023/04/03 05:19:40;;;;;;;4.97;2.45;;;4.00;99.90;;;;;;5052497;28;20243;-77
2023/04/03 05:22:10;;;;;;;5.82;2.40;;;4.00;99.90;;;;;;5056684;28;20267;-76
2023/04/03 05:24:37;;;;;;;2.85;1.38;;;4.00;99.90;;;;;;5051774;28;20224;-74
2023/04/03 05:27:04;;;;;;;2.88;2.05;;;4.00;99.90;;;;;;5052329;28;20310;-77
2023/04/03 05:29:31;;;;;;;7.38;2.20;;;4.00;99.90;;;;;;5042076;28;20224;-77
2023/04/03 05:31:59;;;;;;;3.50;1.67;;;3.90;99.90;;;;;;5053612;28;20537;-77
2023/04/03 05:34:26;;;;;;;5.30;1.80;;;3.90;99.90;;;;;;5056148;28;20309;-75
2023/04/03 05:36:53;;;;;;;16.70;2.80;;;3.90;99.90;;;;;;5055563;28;20236;-75
2023/04/03 05:39:20;;;;;;;5.70;2.78;;;3.90;99.90;;;;;;5055947;28;20228;-77
2023/04/03 05:41:47;;;;;;;1.92;1.73;;;3.90;99.90;;;;;;5055141;28;20558;-76
2023/04/03 05:44:14;;;;;;;8.30;1.90;;;3.90;99.90;;;;;;5055779;28;20278;-77
2023/04/03 05:46:41;;;;;;;3.92;1.90;;;3.90;99.90;;;;;;5054623;28;20225;-75
2023/04/03 05:49:10;;;;;;;6.68;1.92;;;4.00;99.90;;;;;;5055654;28;20233;-77
2023/04/03 05:51:44;;;;;;;3.53;1.83;;;4.00;99.90;;;;;;5054505;28;20216;-76
2023/04/03 05:54:17;;;;;;;2.90;1.88;;;4.00;99.90;;;;;;5055368;28;20223;-75
2023/04/03 05:56:44;;;;;;;7.60;2.28;;;4.10;99.90;;;;;;5045637;28;20216;-75
2023/04/03 05:59:11;;;;;;;3.22;2.03;;;4.00;99.90;;;;;;5055403;28;20246;-76
2023/04/03 06:01:43;;;;;;;5.10;2.10;;;4.00;99.90;;;;;;5053409;28;20229;-75
2023/04/03 06:04:12;;;;;;;5.60;2.05;;;4.10;99.90;;;;;;5055401;28;20220;-77
2023/04/03 06:06:48;;;;;;;6.13;2.22;;;4.10;99.90;;;;;;5054991;28;20282;-76
2023/04/03 06:09:17;;;;;;;3.08;2.35;;;4.20;99.90;;;;;;5055605;28;20224;-76
2023/04/03 06:11:44;;;;;;;4.03;2.80;;;4.30;99.90;;;;;;5054000;28;20667;-76
2023/04/03 06:14:11;;;;;;;7.00;2.47;;;4.30;99.90;;;;;;5055235;28;20274;-78
2023/04/03 06:16:39;;;;;;;3.67;2.15;;;4.40;99.90;;;;;;5054897;28;20565;-78
2023/04/03 06:19:06;;;;;;;2.97;2.08;;;4.40;99.90;;;;;;5054879;28;20225;-76
2023/04/03 06:21:35;;;;;;;2.25;2.05;;;4.50;99.90;;;;;;5054906;28;20232;-76
2023/04/03 06:24:02;;;;;;;5.65;2.88;;;4.50;99.90;;;;;;5054269;28;20244;-78
2023/04/03 06:26:29;;;;;;;4.00;1.70;;;4.50;99.90;;;;;;5054353;28;20216;-77
2023/04/03 06:28:58;;;;;;;5.30;2.40;;;4.50;99.90;;;;;;5054057;28;20311;-77
2023/04/03 06:31:25;;;;;;;2.28;1.90;;;4.60;99.90;;;;;;5054866;28;20412;-77
2023/04/03 06:33:53;;;;;;;2.97;1.80;;;4.60;99.90;;;;;;5054108;28;20225;-77
2023/04/03 06:36:23;;;;;;;4.05;1.88;;;4.70;99.90;;;;;;5054409;28;20221;-75
2023/04/03 06:38:51;;;;;;;2.53;2.10;;;4.80;99.90;;;;;;5053930;28;20232;-75
2023/04/03 06:41:26;;;;;;;6.03;2.83;;;4.80;99.90;;;;;;5054980;28;20278;-75
2023/04/03 06:43:57;;;;;;;3.25;2.40;;;4.90;99.90;;;;;;5054368;28;20581;-76
2023/04/03 06:46:24;;;;;;;5.38;2.67;;;5.00;99.90;;;;;;5053965;28;20694;-77
2023/04/03 06:48:52;;;;;;;5.40;1.65;;;5.10;99.90;;;;;;5053983;28;20232;-75
2023/04/03 06:51:21;;;;;;;3.00;1.85;;;5.10;99.90;;;;;;5054647;28;20293;-75
2023/04/03 06:53:49;;;;;;;4.47;2.25;;;5.20;99.90;;;;;;5054229;28;20228;-75
2023/04/03 06:56:18;;;;;;;3.05;1.80;;;5.30;99.90;;;;;;5054210;28;20224;-75
2023/04/03 06:58:48;;;;;;;3.50;2.10;;;5.30;99.90;;;;;;5043731;28;20256;-75
2023/04/03 07:01:19;;;;;;;2.45;1.70;;;5.40;99.90;;;;;;5042916;28;20236;-75
2023/04/03 07:03:47;;;;;;;3.15;1.30;;;5.50;99.60;;;;;;5053901;28;20221;-75
2023/04/03 07:06:16;;;;;;;2.53;1.80;;;5.50;99.00;;;;;;5044764;28;20313;-75
2023/04/03 07:08:48;;;;;;;5.13;1.83;;;5.50;98.70;;;;;;5053578;28;20224;-75
2023/04/03 07:11:15;;;;;;;2.65;1.30;;;5.50;98.30;;;;;;5053533;28;20221;-77
2023/04/03 07:13:43;;;;;;;4.10;1.48;;;5.50;98.20;;;;;;5053677;28;20282;-76
2023/04/03 07:16:10;;;;;;;5.22;1.70;;;5.60;98.30;;;;;;5053535;28;20541;-77
2023/04/03 07:18:38;;;;;;;3.70;1.75;;;5.70;97.30;;;;;;5054529;28;20221;-77
2023/04/03 07:21:06;;;;;;;2.47;1.10;;;5.80;97.30;;;;;;5052970;28;20237;-75
2023/04/03 07:23:33;;;;;;;2.92;1.75;;;5.90;96.90;;;;;;5054211;28;20232;-75
2023/04/03 07:26:01;;;;;;;4.28;1.25;;;6.00;96.50;;;;;;5053492;28;20312;-76
2023/04/03 07:28:29;;;;;;;2.85;1.77;;;6.20;95.30;;;;;;5055251;28;20225;-78
2023/04/03 07:31:05;;;;;;;2.75;1.83;;;6.20;94.80;;;;;;5061352;28;20231;-76
2023/04/03 07:33:33;;;;;;;1.65;1.17;;;6.40;94.30;;;;;;5056062;28;20235;-76
2023/04/03 07:36:00;;;;;;;5.50;1.98;;;6.40;92.50;;;;;;5053700;28;20212;-76
2023/04/03 07:38:28;;;;;;;5.97;1.35;;;6.40;92.30;;;;;;5053985;28;20227;-76
2023/04/03 07:40:55;;;;;;;4.25;1.33;;;6.50;92.20;;;;;;5054032;28;20307;-76
2023/04/03 07:43:28;;;;;;;3.72;1.33;;;6.50;92.00;;;;;;5054515;28;20216;-78
2023/04/03 07:45:55;;;;;;;1.85;1.25;;;6.60;91.40;;;;;;5054551;28;20747;-78
2023/04/03 07:48:26;;;;;;;3.13;1.42;;;6.50;91.10;;;;;;5061295;28;20232;-78
2023/04/03 07:50:53;;;;;;;4.75;1.88;;;6.50;91.40;;;;;;5054414;28;20228;-78
2023/04/03 07:53:20;;;;;;;2.85;1.27;;;6.50;91.20;;;;;;5054125;28;20223;-76
2023/04/03 07:55:48;;;;;;;1.75;1.23;;;6.50;91.40;;;;;;5052654;28;20570;-76
2023/04/03 07:58:19;;;;;;;2.15;1.33;;;6.60;90.30;;;;;;5053941;28;20228;-76
2023/04/03 08:00:47;;;;;;;2.40;1.20;;;6.60;89.90;;;;;;5053557;28;20232;-76
2023/04/03 08:03:16;;;;;;;2.55;1.30;;;6.60;88.90;;;;;;5053972;28;20282;-76
2023/04/03 08:05:46;;;;;;;2.33;1.63;;;6.50;88.50;;;;;;5054382;28;20709;-76
2023/04/03 08:08:15;;;;;;;3.15;1.52;;;6.50;89.30;;;;;;5054702;28;20304;-78
2023/04/03 08:10:51;;;;;;;3.72;1.80;;;6.50;89.90;;;;;;5055431;28;20236;-78
2023/04/03 08:13:18;;;;;;;2.70;1.48;;;6.40;89.30;;;;;;5054389;28;20212;-77
2023/04/03 08:15:46;;;;;;;1.70;1.55;;;6.50;90.00;;;;;;5053987;28;20693;-76
2023/04/03 08:18:13;;;;;;;3.83;1.60;;;6.50;89.30;;;;;;5053124;28;20295;-77
2023/04/03 08:20:40;;;;;;;3.35;1.75;;;6.60;90.20;;;;;;5053612;28;20342;-76
2023/04/03 08:23:10;;;;;;;5.60;1.60;;;6.70;89.30;;;;;;5052915;28;20221;-76
2023/04/03 08:25:42;;;;;;;2.85;1.23;;;6.70;88.90;;;;;;5053034;28;20307;-76
2023/04/03 08:28:10;;;;;;;1.95;1.40;;;6.70;87.40;;;;;;5052772;28;20331;-75
2023/04/03 08:30:39;;;;;;;4.65;1.60;;;6.80;88.40;;;;;;5056111;28;20492;-76
2023/04/03 08:33:07;;;;;;;3.22;1.75;;;6.90;88.10;;;;;;5053508;28;20234;-76
2023/04/03 08:35:34;;;;;;;3.72;1.83;;;7.00;88.00;;;;;;5053558;28;20281;-76
2023/04/03 08:38:01;;;;;;;2.33;1.40;;;6.90;85.30;;;;;;5053716;28;20233;-78
2023/04/03 08:40:30;;;;;;;4.07;1.30;;;7.00;85.20;;;;;;5053264;28;20639;-77
2023/04/03 08:43:17;;;;;;;1.77;1.23;;;7.10;85.70;;;;;;5051785;28;20280;-76
2023/04/03 08:45:50;;;;;;;2.28;1.40;;;7.20;85.90;;;;;;5053122;28;20224;-76
2023/04/03 08:48:21;;;;;;;2.20;1.40;;;7.20;85.00;;;;;;5052493;28;20252;-78
2023/04/03 08:50:52;;;;;;;2.38;1.60;;;7.30;83.60;;;;;;5053455;28;20263;-78
2023/04/03 08:53:22;;;;;;;3.13;1.77;;;7.30;82.80;;;;;;5052483;28;20277;-76
2023/04/03 08:55:52;;;;;;;5.68;2.50;;;7.40;80.40;;;;;;5052578;28;20601;-76
2023/04/03 08:58:22;;;;;;;3.70;2.30;;;7.30;79.10;;;;;;5051710;28;20227;-76
2023/04/03 09:00:51;;;;;;;2.50;2.03;;;7.30;80.40;;;;;;5052531;28;20678;-78
2023/04/03 09:03:22;;;;;;;2.47;1.48;;;7.20;80.60;;;;;;5043178;28;20232;-76
2023/04/03 09:05:54;;;;;;;4.18;1.75;;;7.30;81.20;;;;;;5052707;28;20286;-78
2023/04/03 09:08:27;;;;;;;2.55;1.48;;;7.30;81.30;;;;;;5055108;28;20714;-76
2023/04/03 09:11:04;;;;;;;7.70;2.28;;;7.30;81.20;;;;;;5056124;28;20285;-77
2023/04/03 09:13:41;;;;;;;4.20;1.50;;;7.40;79.20;;;;;;5055958;28;20223;-78
2023/04/03 09:16:28;;;;;;;4.32;2.10;;;7.40;78.10;;;;;;5055056;28;20316;-78
2023/04/03 09:19:03;;;;;;;4.85;2.38;;;7.40;78.20;;;;;;5056372;28;20229;-76
2023/04/03 09:21:35;;;;;;;2.88;1.38;;;7.30;76.90;;;;;;5054867;28;20220;-76
2023/04/03 09:24:08;;;;;;;2.55;1.30;;;7.20;77.00;;;;;;5055867;28;20228;-76
2023/04/03 09:26:44;;;;;;;1.27;1.10;;;7.20;76.00;;;;;;5055181;28;20609;-78
2023/04/03 09:29:17;;;;;;;4.47;2.40;;;7.10;76.10;;;;;;5054158;28;20232;-78
2023/04/03 09:31:46;;;;;;;2.78;1.25;;;7.10;77.20;;;;;;5055784;28;20611;-76
2023/04/03 09:34:23;;;;;;;2.08;1.30;;;7.10;77.70;;;;;;5054950;28;20225;-78
2023/04/03 09:36:52;;;;;;;5.10;1.80;;;7.10;76.70;;;;;;5055970;28;20230;-77
2023/04/03 09:39:24;;;;;;;2.00;1.60;;;7.10;77.00;;;;;;5055313;28;20229;-78
2023/04/03 09:42:02;;;;;;;3.25;1.65;;;7.10;77.10;;;;;;5054941;28;20298;-78
2023/04/03 09:44:32;;;;;;;4.00;1.70;;;7.00;77.60;;;;;;5053409;28;20327;-78
2023/04/03 09:47:00;;;;;;;2.47;1.77;;;7.00;77.80;;;;;;5055581;28;20235;-78
2023/04/03 09:49:28;;;;;;;2.17;1.50;;;7.00;77.90;;;;;;5054777;28;20244;-76
2023/04/03 09:51:55;;;;;;;2.25;1.83;;;7.10;78.10;;;;;;5055452;28;20350;-76
2023/04/03 09:54:42;;;;;;;3.42;1.40;;;7.20;78.80;;;;;;5045818;28;20224;-76
2023/04/03 09:57:13;;;;;;;1.30;1.20;;;7.20;77.60;;;;;;5050759;28;20220;-76
2023/04/03 09:59:57;;;;;;;4.00;1.60;;;7.30;77.10;;;;;;5054803;28;20274;-76
2023/04/03 10:02:35;;;;;;;2.80;1.50;;;7.30;77.00;;;;;;5055065;28;20236;-76
2023/04/03 10:05:02;;;;;;;2.03;1.23;;;7.40;76.60;;;;;;5055281;28;20236;-76
2023/04/03 10:07:33;;;;;;;2.85;1.60;;;7.40;77.30;;;;;;5055251;28;20224;-76
2023/04/03 10:10:03;;;;;;;1.85;1.35;;;7.60;77.10;;;;;;5055151;28;20224;-76
2023/04/03 10:12:31;;;;;;;2.33;1.40;;;7.70;76.10;;;;;;5055294;28;20232;-75
2023/04/03 10:15:00;;;;;;;2.03;1.25;;;7.70;75.10;;;;;;5055104;28;20696;-75
2023/04/03 10:17:38;;;;;;;1.90;1.38;;;7.60;74.60;;;;;;5053837;28;20221;-77
2023/04/03 10:20:20;;;;;;;4.80;1.60;;;7.80;74.50;;;;;;5055581;28;20235;-77
2023/04/03 10:22:57;;;;;;;2.58;1.33;;;7.80;73.90;;;;;;5055132;28;20290;-77
2023/04/03 10:25:33;;;;;;;3.75;1.40;;;7.90;72.90;;;;;;5055036;28;20225;-78
2023/04/03 10:28:03;;;;;;;1.50;1.10;;;8.00;73.00;;;;;;5035862;28;20248;-75
2023/04/03 10:30:41;;;;;;;2.25;1.30;;;8.10;71.50;;;;;;5035121;28;20221;-77
2023/04/03 10:33:25;;;;;;;1.60;1.20;;;8.10;71.10;;;;;;5036114;28;20229;-75
2023/04/03 10:36:04;;;;;;;2.85;1.10;;;8.10;70.30;;;;;;5037377;28;20270;-75
2023/04/03 10:38:36;;;;;;;1.58;1.30;;;8.20;70.20;;;;;;5043569;28;20209;-76
2023/04/03 10:41:09;;;;;;;4.10;1.40;;;8.20;70.90;;;;;;5048443;28;20248;-77
2023/04/03 10:43:46;;;;;;;1.20;1.10;;;8.20;69.10;;;;;;5050034;28;20240;-76
2023/04/03 10:46:18;;;;;;;3.00;1.25;;;8.20;68.60;;;;;;5048866;28;20221;-74
2023/04/03 10:49:16;;;;;;;1.48;1.30;;;8.20;68.00;;;;;;5045729;28;20263;-76
2023/04/03 10:51:46;;;;;;;1.42;1.15;;;8.10;67.70;;;;;;5022514;28;20614;-75
2023/04/03 10:54:20;;;;;;;1.70;1.10;;;8.10;70.10;;;;;;5036656;28;20256;-76
2023/04/03 10:56:51;;;;;;;4.45;3.08;;;8.10;68.90;;;;;;5034936;28;20290;-76
2023/04/03 10:59:26;;;;;;;6.20;1.63;;;8.20;69.70;;;;;;5034686;28;20225;-76
2023/04/03 11:01:57;;;;;;;1.48;1.38;;;8.20;69.60;;;;;;5034939;28;20300;-76
2023/04/03 11:04:31;;;;;;;1.92;1.17;;;8.20;69.50;;;;;;5034470;28;20607;-74
2023/04/03 11:07:03;;;;;;;1.20;1.10;;;8.40;70.30;;;;;;5033706;28;20221;-75
2023/04/03 11:09:34;;;;;;;2.00;1.30;;;8.40;70.30;;;;;;5034017;28;20312;-79
2023/04/03 11:12:05;;;;;;;1.70;1.52;;;8.50;70.00;;;;;;5027992;28;20282;-78
2023/04/03 11:14:39;;;;;;;2.00;1.23;;;8.50;68.30;;;;;;5045096;28;20217;-77
2023/04/03 11:17:16;;;;;;;2.63;1.13;;;8.40;68.30;;;;;;5033800;28;20249;-75
2023/04/03 11:19:51;;;;;;;3.40;1.65;;;8.40;69.10;;;;;;5033344;28;20315;-76
2023/04/03 11:22:26;;;;;;;3.80;1.38;;;8.40;69.50;;;;;;5033860;28;20228;-76
2023/04/03 11:25:03;;;;;;;1.65;1.55;;;8.40;70.10;;;;;;5034456;28;20225;-78
2023/04/03 11:27:39;;;;;;;1.98;1.10;;;8.40;70.60;;;;;;5045734;28;20744;-78
2023/04/03 11:30:17;;;;;;;3.35;1.33;;;8.40;70.20;;;;;;5045419;28;20319;-76
2023/04/03 11:33:04;;;;;;;2.80;1.70;;;8.40;70.10;;;;;;5046819;28;20228;-78
2023/04/03 11:35:34;;;;;;;3.58;1.95;;;8.30;70.60;;;;;;5048745;28;20221;-78
2023/04/03 11:38:05;;;;;;;2.13;1.60;;;8.40;71.50;;;;;;5062084;28;20232;-78
2023/04/03 11:40:34;;;;;;;2.78;1.60;;;8.40;71.10;;;;;;5054972;28;20274;-78
2023/04/03 11:43:09;;;;;;;3.55;1.75;;;8.30;69.80;;;;;;5050366;28;20237;-78
2023/04/03 11:45:50;;;;;;;1.90;1.50;;;8.20;69.70;;;;;;5052109;28;20330;-77
2023/04/03 11:48:44;;;;;;;3.80;2.08;;;8.20;70.60;;;;;;5051437;28;20225;-76
2023/04/03 11:51:52;;;;;;;3.85;1.60;;;8.30;71.20;;;;;;5033784;28;20229;-75
2023/04/03 11:54:45;;;;;;;2.78;1.60;;;8.30;70.50;;;;;;5033818;28;20573;-75
2023/04/03 11:58:03;;;;;;;2.10;1.35;;;8.20;70.30;;;;;;5030916;28;20313;-75
2023/04/03 12:04:07;;;;;;;1.40;1.30;;;8.20;71.00;;;;;;5131887;27;20558;-76
2023/04/03 12:07:04;;;;;;;3.13;1.85;;;8.20;71.20;;;;;;5130866;27;20224;-75
2023/04/03 12:10:20;;;;;;;1.77;1.50;;;8.20;72.20;;;;;;5147847;27;20873;-76
2023/04/03 12:13:03;;;;;;;2.50;1.40;;;8.20;73.20;;;;;;5151582;27;20225;-76
2023/04/03 12:15:53;;;;;;;3.38;1.40;;;8.20;74.20;;;;;;5152271;27;20217;-76
2023/04/03 12:18:56;;;;;;;3.40;1.60;;;8.30;74.10;;;;;;5151453;27;20765;-74
2023/04/03 12:21:24;;;;;;;4.00;1.63;;;8.30;73.50;;;;;;5107934;27;20655;-76
2023/04/03 12:24:05;;;;;;;2.85;1.70;;;8.30;73.90;;;;;;5150875;27;20259;-76
2023/04/03 12:26:39;;;;;;;1.95;1.60;;;8.30;73.50;;;;;;5146629;27;20229;-76
2023/04/03 12:29:21;;;;;;;3.38;2.00;;;8.20;73.20;;;;;;5151359;27;20686;-76
2023/04/03 12:32:00;;;;;;;4.18;1.73;;;8.30;73.10;;;;;;5151854;27;20251;-76
2023/04/03 12:34:45;;;;;;;2.05;1.30;;;8.20;73.30;;;;;;5150398;27;20225;-75
2023/04/03 12:37:28;;;;;;;3.13;1.63;;;8.20;74.30;;;;;;5159552;27;20216;-76
2023/04/03 12:40:09;;;;;;;2.95;1.60;;;8.30;75.00;;;;;;5153884;27;20232;-76
2023/04/03 12:43:19;;;;;;;1.90;1.42;;;8.40;75.40;;;;;;5130393;27;20306;-76
2023/04/03 12:45:50;;;;;;;1.60;1.40;;;8.40;72.30;;;;;;5105966;28;20652;-76
2023/04/03 12:48:21;;;;;;;2.67;1.30;;;8.40;70.80;;;;;;5107129;28;20235;-76
2023/04/03 12:50:50;;;;;;;1.02;0.93;;;8.40;69.30;;;;;;5132290;27;20332;-76
2023/04/03 12:53:22;;;;;;;3.17;1.10;;;8.50;70.00;;;;;;5150903;27;20222;-77
2023/04/03 12:55:55;;;;;;;1.85;1.17;;;8.60;68.80;;;;;;5150292;27;20214;-77
2023/04/03 12:58:24;;;;;;;2.05;1.67;;;8.60;68.90;;;;;;5147759;27;20236;-77
2023/04/03 13:01:03;;;;;;;2.55;1.20;;;8.60;69.50;;;;;;5159210;27;20217;-77
2023/04/03 13:03:30;;;;;;;1.80;1.23;;;8.70;69.90;;;;;;5149851;27;20998;-77
2023/04/03 13:06:03;;;;;;;1.70;1.60;;;8.70;70.00;;;;;;5151021;27;20278;-77
2023/04/03 13:08:32;;;;;;;1.52;0.90;;;8.70;70.70;;;;;;5143024;27;20227;-76
2023/04/03 13:11:03;;;;;;;4.68;1.65;;;8.70;70.90;;;;;;5130306;27;20230;-77
2023/04/03 13:13:31;;;;;;;1.65;1.20;;;8.70;71.20;;;;;;5122451;27;20683;-77
2023/04/03 13:15:59;;;;;;;1.83;1.23;;;8.50;71.30;;;;;;5116072;27;20226;-74
2023/04/03 13:18:29;;;;;;;1.27;1.10;;;8.60;71.60;;;;;;5121935;27;20254;-75
2023/04/03 13:21:02;;;;;;;3.05;1.10;;;8.50;71.70;;;;;;5136001;27;20720;-74
2023/04/03 13:23:30;;;;;;;1.30;1.20;;;8.50;72.70;;;;;;5135396;27;20655;-75
2023/04/03 13:26:00;;;;;;;2.35;1.67;;;8.60;72.10;;;;;;5135489;27;20222;-76